createdAt,value
2022-09-30T00:00:06.945Z,10.50
2022-09-30T00:01:06.932Z,9.80
2022-09-30T00:02:06.992Z,8.60
2022-09-30T00:03:07.010Z,11.10
2022-09-30T00:04:06.906Z,11.60
2022-09-30T00:05:06.895Z,8.50
2022-09-30T00:06:08.683Z,11.50
2022-09-30T00:07:06.885Z,11.40
2022-09-30T00:08:06.859Z,11.60
2022-09-30T00:09:06.975Z,11.50
2022-09-30T00:10:06.828Z,9.70
2022-09-30T00:11:06.825Z,9.70
2022-09-30T00:12:06.806Z,10.00
2022-09-30T00:13:06.796Z,8.80
2022-09-30T00:14:06.787Z,9.60
2022-09-30T00:15:06.847Z,8.90
2022-09-30T00:16:06.901Z,10.40
2022-09-30T00:17:06.748Z,12.10
2022-09-30T00:18:06.757Z,9.80
2022-09-30T00:19:06.742Z,10.20
2022-09-30T00:20:06.746Z,13.50
2022-09-30T00:21:06.744Z,11.00
2022-09-30T00:22:06.691Z,10.30
2022-09-30T00:23:06.688Z,8.20
2022-09-30T00:24:06.682Z,10.40
2022-09-30T00:25:06.678Z,12.00
2022-09-30T00:26:06.692Z,11.40
2022-09-30T00:27:06.649Z,12.90
2022-09-30T00:28:06.629Z,11.60
2022-09-30T00:29:06.617Z,9.00
2022-09-30T00:30:06.599Z,12.50
2022-09-30T00:31:06.621Z,10.50
2022-09-30T00:32:06.619Z,7.60
2022-09-30T00:33:06.587Z,14.00
2022-09-30T00:34:06.556Z,11.30
2022-09-30T00:35:06.548Z,12.70
2022-09-30T00:36:06.546Z,11.60
2022-09-30T00:37:06.578Z,14.70
2022-09-30T00:38:06.519Z,15.00
2022-09-30T00:39:06.519Z,11.30
2022-09-30T00:40:06.503Z,10.40
2022-09-30T00:41:06.488Z,9.80
2022-09-30T00:42:06.472Z,10.50
2022-09-30T00:43:06.503Z,9.00
2022-09-30T00:44:06.447Z,11.60
2022-09-30T00:45:06.444Z,11.20
2022-09-30T00:46:06.440Z,12.70
2022-09-30T00:47:06.475Z,11.80
2022-09-30T00:48:06.409Z,10.00
2022-09-30T00:49:06.421Z,8.90
2022-09-30T00:50:06.380Z,11.50
2022-09-30T00:51:06.359Z,7.00
2022-09-30T00:52:06.358Z,8.40
2022-09-30T00:53:06.349Z,10.40
2022-09-30T00:54:06.332Z,10.10
2022-09-30T00:55:06.364Z,11.90
2022-09-30T00:56:06.332Z,9.80
2022-09-30T00:57:06.291Z,8.30
2022-09-30T00:58:06.335Z,10.20
2022-09-30T00:59:06.272Z,8.10
2022-09-30T01:00:06.322Z,9.10
2022-09-30T01:01:06.337Z,12.10
2022-09-30T01:02:06.310Z,10.30
2022-09-30T01:03:06.240Z,11.30
2022-09-30T01:04:06.222Z,11.20
2022-09-30T01:05:06.204Z,8.30
2022-09-30T01:06:06.249Z,9.50
2022-09-30T01:07:06.195Z,10.60
2022-09-30T01:08:06.198Z,10.60
2022-09-30T01:09:06.203Z,11.60
2022-09-30T01:10:06.192Z,9.60
2022-09-30T01:11:08.201Z,16.10
2022-09-30T01:12:06.166Z,10.80
2022-09-30T01:13:06.122Z,7.60
2022-09-30T01:14:06.111Z,13.90
2022-09-30T01:15:06.093Z,10.30
2022-09-30T01:16:06.151Z,9.90
2022-09-30T01:17:06.143Z,10.00
2022-09-30T01:18:06.072Z,12.80
2022-09-30T01:19:06.055Z,8.90
2022-09-30T01:20:06.062Z,10.40
2022-09-30T01:21:06.033Z,13.10
2022-09-30T01:22:06.025Z,10.60
2022-09-30T01:23:06.070Z,8.70
2022-09-30T01:24:06.004Z,8.50
2022-09-30T01:25:06.002Z,12.00
2022-09-30T01:26:05.993Z,13.10
2022-09-30T01:27:05.968Z,9.40
2022-09-30T01:28:05.955Z,11.90
2022-09-30T01:29:05.953Z,8.60
2022-09-30T01:30:05.933Z,7.90
2022-09-30T01:31:06.001Z,10.70
2022-09-30T01:32:05.913Z,8.60
2022-09-30T01:33:05.896Z,10.30
2022-09-30T01:34:05.918Z,9.10
2022-09-30T01:35:05.873Z,8.50
2022-09-30T01:36:05.863Z,7.90
2022-09-30T01:37:05.858Z,10.70
2022-09-30T01:38:05.846Z,10.80
2022-09-30T01:39:05.830Z,9.50
2022-09-30T01:40:05.836Z,9.30
2022-09-30T01:41:05.815Z,8.60
2022-09-30T01:42:05.814Z,11.10
2022-09-30T01:43:05.775Z,9.90
2022-09-30T01:44:05.775Z,13.60
2022-09-30T01:45:05.784Z,6.80
2022-09-30T01:46:05.747Z,10.00
2022-09-30T01:47:05.966Z,7.00
2022-09-30T01:48:05.744Z,7.70
2022-09-30T01:49:05.735Z,7.80
2022-09-30T01:50:05.718Z,10.10
2022-09-30T01:51:05.707Z,9.10
2022-09-30T01:52:05.685Z,9.80
2022-09-30T01:53:05.666Z,6.90
2022-09-30T01:54:05.656Z,9.10
2022-09-30T01:55:05.645Z,7.40
2022-09-30T01:56:05.661Z,12.60
2022-09-30T01:57:05.626Z,10.90
2022-09-30T01:58:05.616Z,10.10
2022-09-30T01:59:05.607Z,14.70
2022-09-30T02:00:05.597Z,10.50
2022-09-30T02:01:05.678Z,9.20
2022-09-30T02:02:05.771Z,11.10
2022-09-30T02:03:05.557Z,7.90
2022-09-30T02:04:05.542Z,8.90
2022-09-30T02:05:05.537Z,10.70
2022-09-30T02:06:05.529Z,9.20
2022-09-30T02:07:05.558Z,10.10
2022-09-30T02:08:05.496Z,12.20
2022-09-30T02:09:05.567Z,12.30
2022-09-30T02:10:05.479Z,9.90
2022-09-30T02:11:05.468Z,13.60
2022-09-30T02:12:05.468Z,9.90
2022-09-30T02:13:05.471Z,14.40
2022-09-30T02:14:05.428Z,9.00
2022-09-30T02:15:05.439Z,8.30
2022-09-30T02:16:05.442Z,9.00
2022-09-30T02:17:05.409Z,8.30
2022-09-30T02:18:05.409Z,11.10
2022-09-30T02:19:05.376Z,12.10
2022-09-30T02:20:05.348Z,10.40
2022-09-30T02:21:05.352Z,10.10
2022-09-30T02:22:05.337Z,12.50
2022-09-30T02:23:05.319Z,7.90
2022-09-30T02:24:05.330Z,9.70
2022-09-30T02:25:05.320Z,9.90
2022-09-30T02:26:05.287Z,8.00
2022-09-30T02:27:05.288Z,9.30
2022-09-30T02:28:05.291Z,10.60
2022-09-30T02:29:05.319Z,9.30
2022-09-30T02:30:05.254Z,8.40
2022-09-30T02:31:05.270Z,10.00
2022-09-30T02:32:05.224Z,8.50
2022-09-30T02:33:05.211Z,11.10
2022-09-30T02:34:05.199Z,11.10
2022-09-30T02:35:05.210Z,11.00
2022-09-30T02:36:05.180Z,13.20
2022-09-30T02:37:05.170Z,11.10
2022-09-30T02:38:05.154Z,11.10
2022-09-30T02:39:05.142Z,9.00
2022-09-30T02:40:05.151Z,9.90
2022-09-30T02:41:05.131Z,9.20
2022-09-30T02:42:05.110Z,10.30
2022-09-30T02:43:05.089Z,11.10
2022-09-30T02:44:05.073Z,9.40
2022-09-30T02:45:05.089Z,11.10
2022-09-30T02:46:05.073Z,11.50
2022-09-30T02:47:05.051Z,11.10
2022-09-30T02:48:05.039Z,8.90
2022-09-30T02:49:05.032Z,12.00
2022-09-30T02:50:05.011Z,11.20
2022-09-30T02:51:05.052Z,13.90
2022-09-30T02:52:04.980Z,10.20
2022-09-30T02:53:04.992Z,11.70
2022-09-30T02:54:04.971Z,15.10
2022-09-30T02:55:04.953Z,13.40
2022-09-30T02:56:04.941Z,10.00
2022-09-30T02:57:09.716Z,8.60
2022-09-30T02:58:04.922Z,10.70
2022-09-30T02:59:04.905Z,10.30
2022-09-30T03:00:08.943Z,12.10
2022-09-30T03:01:05.913Z,12.10
2022-09-30T03:02:04.926Z,11.40
2022-09-30T03:03:04.885Z,13.70
2022-09-30T03:04:04.843Z,10.80
2022-09-30T03:05:04.833Z,13.80
2022-09-30T03:06:04.822Z,11.20
2022-09-30T03:07:04.826Z,12.40
2022-09-30T03:08:04.854Z,13.80
2022-09-30T03:09:04.835Z,13.90
2022-09-30T03:10:04.812Z,12.60
2022-09-30T03:11:04.802Z,11.40
2022-09-30T03:12:04.775Z,11.90
2022-09-30T03:13:04.754Z,9.70
2022-09-30T03:14:04.812Z,13.10
2022-09-30T03:15:04.732Z,13.00
2022-09-30T03:16:04.761Z,12.30
2022-09-30T03:17:04.713Z,11.20
2022-09-30T03:18:04.688Z,11.50
2022-09-30T03:19:04.673Z,12.60
2022-09-30T03:20:04.716Z,12.20
2022-09-30T03:21:04.674Z,11.00
2022-09-30T03:22:04.635Z,12.40
2022-09-30T03:23:04.625Z,12.70
2022-09-30T03:24:04.615Z,13.00
2022-09-30T03:25:04.605Z,14.10
2022-09-30T03:26:04.634Z,11.30
2022-09-30T03:27:04.574Z,11.70
2022-09-30T03:28:04.575Z,17.50
2022-09-30T03:29:04.575Z,13.40
2022-09-30T03:30:04.553Z,11.30
2022-09-30T03:31:04.599Z,13.90
2022-09-30T03:32:04.555Z,9.60
2022-09-30T03:33:04.510Z,10.90
2022-09-30T03:34:04.494Z,11.00
2022-09-30T03:35:04.511Z,10.20
2022-09-30T03:36:04.491Z,10.30
2022-09-30T03:37:04.602Z,10.80
2022-09-30T03:38:04.481Z,11.70
2022-09-30T03:39:04.443Z,13.10
2022-09-30T03:40:04.442Z,9.60
2022-09-30T03:41:04.427Z,11.90
2022-09-30T03:42:04.405Z,11.50
2022-09-30T03:43:04.420Z,11.50
2022-09-30T03:44:04.375Z,8.90
2022-09-30T03:45:04.384Z,10.40
2022-09-30T03:46:04.377Z,11.80
2022-09-30T03:47:04.357Z,11.20
2022-09-30T03:48:04.353Z,8.50
2022-09-30T03:49:04.346Z,11.80
2022-09-30T03:50:04.308Z,11.40
2022-09-30T03:51:04.308Z,13.30
2022-09-30T03:52:04.287Z,9.20
2022-09-30T03:53:04.277Z,9.50
2022-09-30T03:54:04.309Z,9.80
2022-09-30T03:55:04.337Z,9.80
2022-09-30T03:56:04.240Z,9.10
2022-09-30T03:57:04.256Z,11.80
2022-09-30T03:58:04.228Z,12.60
2022-09-30T03:59:04.209Z,13.00
2022-09-30T04:00:04.277Z,9.60
2022-09-30T04:01:04.255Z,13.30
2022-09-30T04:02:04.233Z,10.10
2022-09-30T04:03:04.166Z,12.70
2022-09-30T04:04:04.146Z,13.10
2022-09-30T04:05:04.187Z,13.60
2022-09-30T04:06:04.137Z,12.40
2022-09-30T04:07:04.115Z,9.20
2022-09-30T04:08:04.099Z,11.70
2022-09-30T04:09:04.139Z,10.90
2022-09-30T04:10:04.094Z,12.50
2022-09-30T04:11:04.098Z,11.60
2022-09-30T04:12:04.057Z,13.40
2022-09-30T04:13:04.062Z,13.50
2022-09-30T04:14:04.033Z,13.60
2022-09-30T04:15:04.036Z,10.50
2022-09-30T04:16:04.133Z,11.90
2022-09-30T04:17:04.030Z,11.40
2022-09-30T04:18:04.031Z,11.10
2022-09-30T04:19:03.998Z,11.30
2022-09-30T04:20:03.958Z,10.50
2022-09-30T04:21:03.950Z,9.90
2022-09-30T04:22:03.961Z,11.70
2022-09-30T04:23:03.951Z,11.10
2022-09-30T04:24:03.930Z,8.50
2022-09-30T04:25:03.913Z,10.90
2022-09-30T04:26:03.894Z,15.50
2022-09-30T04:27:03.882Z,13.60
2022-09-30T04:28:04.052Z,11.20
2022-09-30T04:29:03.859Z,13.60
2022-09-30T04:30:03.870Z,11.60
2022-09-30T04:31:03.919Z,12.10
2022-09-30T04:32:03.841Z,11.80
2022-09-30T04:33:03.833Z,10.40
2022-09-30T04:34:05.134Z,12.70
2022-09-30T04:35:03.799Z,9.80
2022-09-30T04:36:03.799Z,11.20
2022-09-30T04:37:06.313Z,12.30
2022-09-30T04:38:04.771Z,11.80
2022-09-30T04:39:03.770Z,11.20
2022-09-30T04:40:03.740Z,9.00
2022-09-30T04:41:03.728Z,9.90
2022-09-30T04:42:03.722Z,9.30
2022-09-30T04:43:03.711Z,9.90
2022-09-30T04:44:03.702Z,8.30
2022-09-30T04:45:03.731Z,11.50
2022-09-30T04:46:03.732Z,14.20
2022-09-30T04:47:03.662Z,10.00
2022-09-30T04:48:03.653Z,9.70
2022-09-30T04:49:07.871Z,8.90
2022-09-30T04:50:04.661Z,8.70
2022-09-30T04:51:03.627Z,9.90
2022-09-30T04:52:03.611Z,10.40
2022-09-30T04:53:03.614Z,9.60
2022-09-30T04:54:03.632Z,12.20
2022-09-30T04:55:03.597Z,13.70
2022-09-30T04:56:03.617Z,13.70
2022-09-30T04:57:03.555Z,8.50
2022-09-30T04:58:03.549Z,8.80
2022-09-30T04:59:03.554Z,9.20
2022-09-30T05:00:03.513Z,7.90
2022-09-30T05:01:03.568Z,9.30
2022-09-30T05:02:03.608Z,7.50
2022-09-30T05:03:03.482Z,6.10
2022-09-30T05:04:03.486Z,8.10
2022-09-30T05:05:03.484Z,7.60
2022-09-30T05:06:03.467Z,13.10
2022-09-30T05:07:03.452Z,8.90
2022-09-30T05:08:03.454Z,13.40
2022-09-30T05:09:03.458Z,13.70
2022-09-30T05:10:03.403Z,10.10
2022-09-30T05:11:03.425Z,15.00
2022-09-30T05:12:03.402Z,9.70
2022-09-30T05:13:03.374Z,11.60
2022-09-30T05:14:03.413Z,16.40
2022-09-30T05:15:03.354Z,8.10
2022-09-30T05:16:03.383Z,16.70
2022-09-30T05:17:03.346Z,8.80
2022-09-30T05:18:03.326Z,14.10
2022-09-30T05:19:03.356Z,13.30
2022-09-30T05:20:03.298Z,12.20
2022-09-30T05:21:03.299Z,15.10
2022-09-30T05:22:03.274Z,10.10
2022-09-30T05:23:03.277Z,15.60
2022-09-30T05:24:03.253Z,9.90
2022-09-30T05:25:03.274Z,13.70
2022-09-30T05:26:03.254Z,9.50
2022-09-30T05:27:03.270Z,11.10
2022-09-30T05:28:03.264Z,8.10
2022-09-30T05:29:03.219Z,15.20
2022-09-30T05:30:03.187Z,12.90
2022-09-30T05:31:03.268Z,8.10
2022-09-30T05:32:03.166Z,20.90
2022-09-30T05:33:03.179Z,16.10
2022-09-30T05:34:03.148Z,17.90
2022-09-30T05:35:03.135Z,12.90
2022-09-30T05:36:03.135Z,20.20
2022-09-30T05:37:03.145Z,19.00
2022-09-30T05:38:03.117Z,13.90
2022-09-30T05:39:03.104Z,15.20
2022-09-30T05:40:03.077Z,11.90
2022-09-30T05:41:03.065Z,16.50
2022-09-30T05:42:03.061Z,17.90
2022-09-30T05:43:03.077Z,11.00
2022-09-30T05:44:03.048Z,17.50
2022-09-30T05:45:03.035Z,10.50
2022-09-30T05:46:03.024Z,18.90
2022-09-30T05:47:03.081Z,15.20
2022-09-30T05:48:03.016Z,22.30
2022-09-30T05:49:03.013Z,14.10
2022-09-30T05:50:02.970Z,11.80
2022-09-30T05:51:02.988Z,14.30
2022-09-30T05:52:02.957Z,14.90
2022-09-30T05:53:02.957Z,11.80
2022-09-30T05:54:02.996Z,19.60
2022-09-30T05:55:02.918Z,19.80
2022-09-30T05:56:02.947Z,21.90
2022-09-30T05:57:02.888Z,23.00
2022-09-30T05:58:02.878Z,29.50
2022-09-30T05:59:02.868Z,30.80
2022-09-30T06:00:02.900Z,26.70
2022-09-30T06:01:09.279Z,45.10
2022-09-30T06:02:03.915Z,29.50
2022-09-30T06:03:02.931Z,29.10
2022-09-30T06:04:02.817Z,21.40
2022-09-30T06:05:02.800Z,16.20
2022-09-30T06:06:02.826Z,15.70
2022-09-30T06:07:04.923Z,34.80
2022-09-30T06:08:02.773Z,22.30
2022-09-30T06:09:02.833Z,20.70
2022-09-30T06:10:02.762Z,27.50
2022-09-30T06:11:02.729Z,33.70
2022-09-30T06:12:02.769Z,13.70
2022-09-30T06:13:02.724Z,31.80
2022-09-30T06:14:02.719Z,18.10
2022-09-30T06:15:02.719Z,18.80
2022-09-30T06:16:02.760Z,30.90
2022-09-30T06:17:02.664Z,27.90
2022-09-30T06:18:02.689Z,23.40
2022-09-30T06:19:02.669Z,34.90
2022-09-30T06:20:02.642Z,36.20
2022-09-30T06:21:02.775Z,20.40
2022-09-30T06:22:02.608Z,26.10
2022-09-30T06:23:02.610Z,16.00
2022-09-30T06:24:02.620Z,21.40
2022-09-30T06:25:02.570Z,27.00
2022-09-30T06:26:02.573Z,36.00
2022-09-30T06:27:02.557Z,24.10
2022-09-30T06:28:02.548Z,26.10
2022-09-30T06:29:02.539Z,18.20
2022-09-30T06:30:02.557Z,21.40
2022-09-30T06:31:02.510Z,28.10
2022-09-30T06:32:02.555Z,18.40
2022-09-30T06:33:02.502Z,17.60
2022-09-30T06:34:02.479Z,16.50
2022-09-30T06:35:02.520Z,12.00
2022-09-30T06:36:02.450Z,15.50
2022-09-30T06:37:02.566Z,23.00
2022-09-30T06:38:02.422Z,16.70
2022-09-30T06:39:02.418Z,23.50
2022-09-30T06:40:02.411Z,12.70
2022-09-30T06:41:02.410Z,22.30
2022-09-30T06:42:02.385Z,17.50
2022-09-30T06:43:02.372Z,19.00
2022-09-30T06:44:02.387Z,18.20
2022-09-30T06:45:03.331Z,16.70
2022-09-30T06:46:12.240Z,19.40
2022-09-30T06:47:03.703Z,19.00
2022-09-30T06:48:02.366Z,31.20
2022-09-30T06:49:09.865Z,11.60
2022-09-30T06:50:03.359Z,14.50
2022-09-30T06:51:02.642Z,12.90
2022-09-30T06:52:02.312Z,13.60
2022-09-30T06:53:02.277Z,9.80
2022-09-30T06:54:02.275Z,10.00
2022-09-30T06:55:02.221Z,16.20
2022-09-30T06:56:02.224Z,12.90
2022-09-30T06:57:02.209Z,12.70
2022-09-30T06:58:02.237Z,12.60
2022-09-30T06:59:02.219Z,10.00
2022-09-30T07:00:02.900Z,12.40
2022-09-30T07:01:02.258Z,10.10
2022-09-30T07:02:02.210Z,6.60
2022-09-30T07:03:02.153Z,9.90
2022-09-30T07:04:02.152Z,7.30
2022-09-30T07:05:02.193Z,11.20
2022-09-30T07:06:02.153Z,8.70
2022-09-30T07:07:02.092Z,10.00
2022-09-30T07:08:02.115Z,8.40
2022-09-30T07:09:02.130Z,8.60
2022-09-30T07:10:02.076Z,8.60
2022-09-30T07:11:02.063Z,6.80
2022-09-30T07:12:02.141Z,7.80
2022-09-30T07:13:02.073Z,8.10
2022-09-30T07:14:02.030Z,6.80
2022-09-30T07:15:02.045Z,6.90
2022-09-30T07:16:02.057Z,6.20
2022-09-30T07:17:01.974Z,6.50
2022-09-30T07:18:01.972Z,6.80
2022-09-30T07:19:01.985Z,6.60
2022-09-30T07:20:01.948Z,8.10
2022-09-30T07:21:01.975Z,8.30
2022-09-30T07:22:02.008Z,6.60
2022-09-30T07:23:01.917Z,8.10
2022-09-30T07:24:01.922Z,6.60
2022-09-30T07:25:01.903Z,5.50
2022-09-30T07:26:01.934Z,5.20
2022-09-30T07:27:01.866Z,7.00
2022-09-30T07:28:01.854Z,6.20
2022-09-30T07:29:01.875Z,6.30
2022-09-30T07:30:09.467Z,7.20
2022-09-30T07:31:20.330Z,5.60
2022-09-30T07:32:02.884Z,6.10
2022-09-30T07:33:01.808Z,6.40
2022-09-30T07:34:01.786Z,7.40
2022-09-30T07:35:01.788Z,6.30
2022-09-30T07:36:01.759Z,7.40
2022-09-30T07:37:01.795Z,6.40
2022-09-30T07:38:01.735Z,6.50
2022-09-30T07:39:01.758Z,6.90
2022-09-30T07:40:01.719Z,6.50
2022-09-30T07:41:01.721Z,5.60
2022-09-30T07:42:01.696Z,5.80
2022-09-30T07:43:01.729Z,6.00
2022-09-30T07:44:01.674Z,6.00
2022-09-30T07:45:01.682Z,7.60
2022-09-30T07:46:01.698Z,5.80
2022-09-30T07:47:01.656Z,5.60
2022-09-30T07:48:01.659Z,6.20
2022-09-30T07:49:01.677Z,8.20
2022-09-30T07:50:01.654Z,5.50
2022-09-30T07:51:01.588Z,7.00
2022-09-30T07:52:01.588Z,6.90
2022-09-30T07:53:01.571Z,5.80
2022-09-30T07:54:01.561Z,9.00
2022-09-30T07:55:01.587Z,6.20
2022-09-30T07:56:01.540Z,5.30
2022-09-30T07:57:10.541Z,8.60
2022-09-30T07:58:02.590Z,7.30
2022-09-30T07:59:01.514Z,5.80
2022-09-30T08:00:12.059Z,7.20
2022-09-30T08:01:02.517Z,7.00
2022-09-30T08:02:01.570Z,6.80
2022-09-30T08:03:01.479Z,7.00
2022-09-30T08:04:01.447Z,7.60
2022-09-30T08:05:01.439Z,5.10
2022-09-30T08:06:01.449Z,7.20
2022-09-30T08:07:01.411Z,5.50
2022-09-30T08:08:01.431Z,6.00
2022-09-30T08:09:01.496Z,6.70
2022-09-30T08:10:01.381Z,5.20
2022-09-30T08:11:01.371Z,6.60
2022-09-30T08:12:01.389Z,5.80
2022-09-30T08:13:04.275Z,7.50
2022-09-30T08:14:02.331Z,6.30
2022-09-30T08:15:01.320Z,5.90
2022-09-30T08:16:01.313Z,5.90
2022-09-30T08:17:01.458Z,5.90
2022-09-30T08:18:01.312Z,6.10
2022-09-30T08:19:01.272Z,5.50
2022-09-30T08:20:01.271Z,6.00
2022-09-30T08:21:02.063Z,6.50
2022-09-30T08:22:04.465Z,7.60
2022-09-30T08:23:01.241Z,6.10
2022-09-30T08:24:01.244Z,5.80
2022-09-30T08:25:01.427Z,5.90
2022-09-30T08:26:01.211Z,7.10
2022-09-30T08:27:01.236Z,5.80
2022-09-30T08:28:01.174Z,6.70
2022-09-30T08:29:01.185Z,7.00
2022-09-30T08:30:04.630Z,6.10
2022-09-30T08:31:01.152Z,7.70
2022-09-30T08:32:01.186Z,5.50
2022-09-30T08:33:01.131Z,9.60
2022-09-30T08:34:01.116Z,6.80
2022-09-30T08:35:01.178Z,8.40
2022-09-30T08:36:01.113Z,7.40
2022-09-30T08:37:03.861Z,7.70
2022-09-30T08:38:02.067Z,7.30
2022-09-30T08:39:01.067Z,9.40
2022-09-30T08:40:01.063Z,6.40
2022-09-30T08:41:01.039Z,7.00
2022-09-30T08:42:04.989Z,8.60
2022-09-30T08:43:02.023Z,7.10
2022-09-30T08:44:01.011Z,6.70
2022-09-30T08:45:01.016Z,8.90
2022-09-30T08:46:01.058Z,7.70
2022-09-30T08:47:00.965Z,7.40
2022-09-30T08:48:00.969Z,8.50
2022-09-30T08:49:03.383Z,7.30
2022-09-30T08:50:00.939Z,7.20
2022-09-30T08:51:00.920Z,7.00
2022-09-30T08:52:00.945Z,9.40
2022-09-30T08:53:00.885Z,8.90
2022-09-30T08:54:00.906Z,6.60
2022-09-30T08:55:00.909Z,7.80
2022-09-30T08:56:00.877Z,7.30
2022-09-30T08:57:00.876Z,7.40
2022-09-30T08:58:00.837Z,8.80
2022-09-30T08:59:00.818Z,7.70
2022-09-30T09:00:00.824Z,8.30
2022-09-30T09:01:00.824Z,7.90
2022-09-30T09:02:00.810Z,6.50
2022-09-30T09:03:01.078Z,8.30
2022-09-30T09:04:00.788Z,7.70
2022-09-30T09:05:00.754Z,9.40
2022-09-30T09:06:00.750Z,8.70
2022-09-30T09:07:00.754Z,7.20
2022-09-30T09:08:00.751Z,9.00
2022-09-30T09:09:00.758Z,8.30
2022-09-30T09:10:00.710Z,8.60
2022-09-30T09:11:00.713Z,8.10
2022-09-30T09:12:00.731Z,7.60
2022-09-30T09:13:00.682Z,7.30
2022-09-30T09:14:00.650Z,8.10
2022-09-30T09:15:00.659Z,6.90
2022-09-30T09:16:00.630Z,7.90
2022-09-30T09:17:00.671Z,9.40
2022-09-30T09:18:22.166Z,7.90
2022-09-30T09:19:01.611Z,8.40
2022-09-30T09:20:00.584Z,7.00
2022-09-30T09:21:00.592Z,7.50
2022-09-30T09:22:00.576Z,6.00
2022-09-30T09:23:01.496Z,10.40
2022-09-30T09:24:00.560Z,7.70
2022-09-30T09:25:00.524Z,6.20
2022-09-30T09:26:00.512Z,6.10
2022-09-30T09:27:00.542Z,6.90
2022-09-30T09:28:00.556Z,7.00
2022-09-30T09:29:00.482Z,8.50
2022-09-30T09:30:00.469Z,5.80
2022-09-30T09:31:00.502Z,7.00
2022-09-30T09:32:00.477Z,8.40
2022-09-30T09:33:00.458Z,7.60
2022-09-30T09:34:00.427Z,6.90
2022-09-30T09:35:00.412Z,10.20
2022-09-30T09:36:00.392Z,6.40
2022-09-30T09:37:00.385Z,8.70
2022-09-30T09:38:00.373Z,8.60
2022-09-30T09:39:00.385Z,9.10
2022-09-30T09:40:04.058Z,6.90
2022-09-30T09:41:00.337Z,9.70
2022-09-30T09:42:00.323Z,7.70
2022-09-30T09:43:00.324Z,6.80
2022-09-30T09:44:00.335Z,10.40
2022-09-30T09:45:00.294Z,5.50
2022-09-30T09:46:00.376Z,8.80
2022-09-30T09:47:00.266Z,9.10
2022-09-30T09:48:00.274Z,7.00
2022-09-30T09:49:00.307Z,6.20
2022-09-30T09:50:01.252Z,7.10
2022-09-30T09:51:00.384Z,10.10
2022-09-30T09:52:00.215Z,9.90
2022-09-30T09:53:00.198Z,9.30
2022-09-30T09:54:00.198Z,6.50
2022-09-30T09:55:00.215Z,9.60
2022-09-30T09:56:00.313Z,7.00
2022-09-30T09:57:00.168Z,7.90
2022-09-30T09:58:00.170Z,6.80
2022-09-30T09:59:00.225Z,10.20
2022-09-30T10:01:00.297Z,7.30
2022-09-30T10:02:00.207Z,13.10
2022-09-30T10:03:00.091Z,11.50
2022-09-30T10:04:00.096Z,12.60
2022-09-30T10:05:00.208Z,9.40
2022-09-30T10:06:00.079Z,11.00
2022-09-30T10:07:00.103Z,11.10
2022-09-30T10:08:00.109Z,8.20
2022-09-30T10:09:00.074Z,8.90
2022-09-30T10:10:00.010Z,8.80
2022-09-30T10:11:00.009Z,9.70
2022-09-30T10:12:00.011Z,12.70
2022-09-30T10:13:00.333Z,7.20
2022-09-30T10:13:59.979Z,8.70
2022-09-30T10:14:59.976Z,8.60
2022-09-30T10:15:59.963Z,11.10
2022-09-30T10:17:00.008Z,7.70
2022-09-30T10:17:59.944Z,6.90
2022-09-30T10:18:59.924Z,12.00
2022-09-30T10:19:59.893Z,8.60
2022-09-30T10:20:59.891Z,10.70
2022-09-30T10:22:00.786Z,9.50
2022-09-30T10:22:59.930Z,7.10
2022-09-30T10:23:59.905Z,10.10
2022-09-30T10:24:59.867Z,8.40
2022-09-30T10:25:59.852Z,10.00
2022-09-30T10:26:59.903Z,7.10
2022-09-30T10:27:59.870Z,7.40
2022-09-30T10:28:59.865Z,9.50
2022-09-30T10:29:59.823Z,8.30
2022-09-30T10:30:59.786Z,8.70
2022-09-30T10:32:00.243Z,7.30
2022-09-30T10:32:59.746Z,7.20
2022-09-30T10:33:59.791Z,8.80
2022-09-30T10:34:59.783Z,9.30
2022-09-30T10:35:59.726Z,10.90
2022-09-30T10:36:59.703Z,8.00
2022-09-30T10:37:59.824Z,9.40
2022-09-30T10:39:02.609Z,8.80
2022-09-30T10:40:00.755Z,8.60
2022-09-30T10:40:59.654Z,10.50
2022-09-30T10:41:59.636Z,9.30
2022-09-30T10:42:59.635Z,10.20
2022-09-30T10:43:59.641Z,8.70
2022-09-30T10:44:59.610Z,7.30
2022-09-30T10:46:21.314Z,9.30
2022-09-30T10:47:00.830Z,9.80
2022-09-30T10:47:59.583Z,9.60
2022-09-30T10:48:59.566Z,7.80
2022-09-30T10:49:59.560Z,9.10
2022-09-30T10:51:00.911Z,7.00
2022-09-30T10:51:59.553Z,8.30
2022-09-30T10:52:59.537Z,10.60
2022-09-30T10:53:59.518Z,10.20
2022-09-30T10:54:59.509Z,6.30
2022-09-30T10:55:59.489Z,9.10
2022-09-30T10:57:00.002Z,8.00
2022-09-30T10:57:59.491Z,10.60
2022-09-30T10:58:59.446Z,9.50
2022-09-30T10:59:59.439Z,10.20
2022-09-30T11:00:59.450Z,17.50
2022-09-30T11:02:00.927Z,9.30
2022-09-30T11:02:59.518Z,8.60
2022-09-30T11:03:59.442Z,7.20
2022-09-30T11:04:59.385Z,8.00
2022-09-30T11:05:59.371Z,9.30
2022-09-30T11:06:59.371Z,8.20
2022-09-30T11:07:59.372Z,8.00
2022-09-30T11:08:59.331Z,10.20
2022-09-30T11:09:59.353Z,11.80
2022-09-30T11:10:59.314Z,10.70
2022-09-30T11:11:59.315Z,8.30
2022-09-30T11:12:59.312Z,8.30
2022-09-30T11:13:59.298Z,10.50
2022-09-30T11:14:59.263Z,9.20
2022-09-30T11:15:59.320Z,7.50
2022-09-30T11:16:59.244Z,8.30
2022-09-30T11:17:59.231Z,8.70
2022-09-30T11:18:59.216Z,7.20
2022-09-30T11:19:59.213Z,9.00
2022-09-30T11:20:59.353Z,9.30
2022-09-30T11:21:59.194Z,9.40
2022-09-30T11:22:59.174Z,8.30
2022-09-30T11:23:59.234Z,7.80
2022-09-30T11:24:59.150Z,12.10
2022-09-30T11:25:59.176Z,6.10
2022-09-30T11:26:59.148Z,7.90
2022-09-30T11:27:59.134Z,9.10
2022-09-30T11:28:59.129Z,7.00
2022-09-30T11:29:59.098Z,9.30
2022-09-30T11:30:59.076Z,7.20
2022-09-30T11:31:59.197Z,8.90
2022-09-30T11:32:59.067Z,6.80
2022-09-30T11:33:59.177Z,7.60
2022-09-30T11:34:59.039Z,8.10
2022-09-30T11:35:59.068Z,6.00
2022-09-30T11:36:59.021Z,8.70
2022-09-30T11:37:59.030Z,6.10
2022-09-30T11:38:59.000Z,6.70
2022-09-30T11:39:58.979Z,5.70
2022-09-30T11:40:58.979Z,5.30
2022-09-30T11:41:58.960Z,4.20
2022-09-30T11:42:58.964Z,5.40
2022-09-30T11:43:58.971Z,5.00
2022-09-30T11:44:58.941Z,6.70
2022-09-30T11:45:58.966Z,4.60
2022-09-30T11:46:58.917Z,6.50
2022-09-30T11:47:58.924Z,8.90
2022-09-30T11:48:58.901Z,4.60
2022-09-30T11:49:58.869Z,6.60
2022-09-30T11:50:58.903Z,6.00
2022-09-30T11:51:58.841Z,9.80
2022-09-30T11:52:58.842Z,7.40
2022-09-30T11:53:58.840Z,7.10
2022-09-30T11:54:58.915Z,6.60
2022-09-30T11:55:58.802Z,3.80
2022-09-30T11:56:58.811Z,4.60
2022-09-30T11:57:58.783Z,6.00
2022-09-30T11:58:58.789Z,10.00
2022-09-30T11:59:58.764Z,4.80
2022-09-30T12:00:58.773Z,5.30
2022-09-30T12:01:58.910Z,4.20
2022-09-30T12:02:58.775Z,6.30
2022-09-30T12:03:58.720Z,7.10
2022-09-30T12:04:58.706Z,6.10
2022-09-30T12:05:58.715Z,8.70
2022-09-30T12:06:58.695Z,3.80
2022-09-30T12:07:58.667Z,4.10
2022-09-30T12:08:58.655Z,4.50
2022-09-30T12:09:58.661Z,6.30
2022-09-30T12:10:58.636Z,4.00
2022-09-30T12:11:58.665Z,3.50
2022-09-30T12:12:58.606Z,3.30
2022-09-30T12:13:58.639Z,5.40
2022-09-30T12:14:58.594Z,6.60
2022-09-30T12:15:58.570Z,5.90
2022-09-30T12:16:58.669Z,5.80
2022-09-30T12:17:58.560Z,5.90
2022-09-30T12:18:58.539Z,5.80
2022-09-30T12:19:58.550Z,7.10
2022-09-30T12:20:58.527Z,5.00
2022-09-30T12:21:58.517Z,6.20
2022-09-30T12:22:58.519Z,3.40
2022-09-30T12:23:58.489Z,5.60
2022-09-30T12:24:58.476Z,4.90
2022-09-30T12:25:58.465Z,4.60
2022-09-30T12:26:58.501Z,9.10
2022-09-30T12:27:58.493Z,5.30
2022-09-30T12:29:02.658Z,4.80
2022-09-30T12:29:59.410Z,5.40
2022-09-30T12:30:58.410Z,7.40
2022-09-30T12:31:58.423Z,4.60
2022-09-30T12:32:58.381Z,4.30
2022-09-30T12:33:58.374Z,5.00
2022-09-30T12:34:58.398Z,5.90
2022-09-30T12:35:58.353Z,5.20
2022-09-30T12:36:58.358Z,6.90
2022-09-30T12:37:58.330Z,6.40
2022-09-30T12:38:58.324Z,4.20
2022-09-30T12:39:58.314Z,5.60
2022-09-30T12:40:58.322Z,4.00
2022-09-30T12:41:58.284Z,2.70
2022-09-30T12:42:58.263Z,6.50
2022-09-30T12:43:58.262Z,4.40
2022-09-30T12:44:58.254Z,5.90
2022-09-30T12:45:58.303Z,6.30
2022-09-30T12:46:58.245Z,5.80
2022-09-30T12:47:58.218Z,4.80
2022-09-30T12:48:58.212Z,3.10
2022-09-30T12:49:58.211Z,5.40
2022-09-30T12:50:58.215Z,4.40
2022-09-30T12:51:58.195Z,6.00
2022-09-30T12:52:58.157Z,4.90
2022-09-30T12:53:58.145Z,7.20
2022-09-30T12:54:58.128Z,5.00
2022-09-30T12:55:58.163Z,3.10
2022-09-30T12:56:58.114Z,3.70
2022-09-30T12:57:58.146Z,3.90
2022-09-30T12:58:58.086Z,3.20
2022-09-30T12:59:58.086Z,4.60
2022-09-30T13:00:58.123Z,5.10
2022-09-30T13:01:58.111Z,3.60
2022-09-30T13:02:58.039Z,6.80
2022-09-30T13:03:58.088Z,5.40
2022-09-30T13:04:58.040Z,4.10
2022-09-30T13:05:58.009Z,4.60
2022-09-30T13:06:58.006Z,3.90
2022-09-30T13:07:58.312Z,3.60